sensor_id;sensor_type;location;lat;lon;timestamp;temperature;humidity
3944;DHT22;1986;52.546;13.428;2022-11-28T00:00:55;4.20;99.90
3944;DHT22;1986;52.546;13.428;2022-11-28T00:03:24;4.20;99.90
3944;DHT22;1986;52.546;13.428;2022-11-28T00:05:51;4.20;99.90
3944;DHT22;1986;52.546;13.428;2022-11-28T00:08:18;4.10;99.90
3944;DHT22;1986;52.546;13.428;2022-11-28T00:10:45;4.10;99.90
3944;DHT22;1986;52.546;13.428;2022-11-28T00:13:12;4.10;99.90
3944;DHT22;1986;52.546;13.428;2022-11-28T00:15:39;4.10;99.90
3944;DHT22;1986;52.546;13.428;2022-11-28T00:18:06;4.10;99.90
3944;DHT22;1986;52.546;13.428;2022-11-28T00:20:36;4.10;99.90
3944;DHT22;1986;52.546;13.428;2022-11-28T00:23:03;4.10;99.90
3944;DHT22;1986;52.546;13.428;2022-11-28T00:25:32;4.10;99.90
3944;DHT22;1986;52.546;13.428;2022-11-28T00:27:59;4.10;99.90
3944;DHT22;1986;52.546;13.428;2022-11-28T00:30:26;4.10;99.90
3944;DHT22;1986;52.546;13.428;2022-11-28T00:32:53;4.00;99.90
3944;DHT22;1986;52.546;13.428;2022-11-28T00:35:20;4.00;99.90
3944;DHT22;1986;52.546;13.428;2022-11-28T00:37:51;4.00;99.90
3944;DHT22;1986;52.546;13.428;2022-11-28T00:40:18;4.00;99.90
3944;DHT22;1986;52.546;13.428;2022-11-28T00:42:45;4.00;99.90
3944;DHT22;1986;52.546;13.428;2022-11-28T00:45:12;4.00;99.90
3944;DHT22;1986;52.546;13.428;2022-11-28T00:47:39;4.00;99.90
3944;DHT22;1986;52.546;13.428;2022-11-28T00:50:07;4.00;99.90
3944;DHT22;1986;52.546;13.428;2022-11-28T00:52:34;4.00;99.90
3944;DHT22;1986;52.546;13.428;2022-11-28T00:55:02;4.00;99.90
3944;DHT22;1986;52.546;13.428;2022-11-28T00:57:33;4.00;99.90
3944;DHT22;1986;52.546;13.428;2022-11-28T01:00:01;3.90;99.90
3944;DHT22;1986;52.546;13.428;2022-11-28T01:02:28;3.90;99.90
3944;DHT22;1986;52.546;13.428;2022-11-28T01:04:55;3.90;99.90
3944;DHT22;1986;52.546;13.428;2022-11-28T01:07:22;3.90;99.90
3944;DHT22;1986;52.546;13.428;2022-11-28T01:09:48;3.90;99.90
3944;DHT22;1986;52.546;13.428;2022-11-28T01:12:17;3.90;99.90
3944;DHT22;1986;52.546;13.428;2022-11-28T01:14:58;3.90;99.90
3944;DHT22;1986;52.546;13.428;2022-11-28T01:17:25;3.80;99.90
3944;DHT22;1986;52.546;13.428;2022-11-28T01:19:56;3.80;99.90
3944;DHT22;1986;52.546;13.428;2022-11-28T01:22:23;3.80;99.90
3944;DHT22;1986;52.546;13.428;2022-11-28T01:24:50;3.80;99.90
3944;DHT22;1986;52.546;13.428;2022-11-28T01:27:24;3.80;99.90
3944;DHT22;1986;52.546;13.428;2022-11-28T01:29:55;3.80;99.90
3944;DHT22;1986;52.546;13.428;2022-11-28T01:32:22;3.70;99.90
3944;DHT22;1986;52.546;13.428;2022-11-28T01:34:49;3.70;99.90
3944;DHT22;1986;52.546;13.428;2022-11-28T01:37:16;3.70;99.90
3944;DHT22;1986;52.546;13.428;2022-11-28T01:39:43;3.80;99.90
3944;DHT22;1986;52.546;13.428;2022-11-28T01:42:15;3.70;99.90
3944;DHT22;1986;52.546;13.428;2022-11-28T01:45:09;3.70;99.90
3944;DHT22;1986;52.546;13.428;2022-11-28T01:47:38;3.70;99.90
3944;DHT22;1986;52.546;13.428;2022-11-28T01:50:07;3.70;99.90
3944;DHT22;1986;52.546;13.428;2022-11-28T01:52:37;3.70;99.90
3944;DHT22;1986;52.546;13.428;2022-11-28T01:55:06;3.80;99.90
3944;DHT22;1986;52.546;13.428;2022-11-28T01:57:33;3.70;99.90
3944;DHT22;1986;52.546;13.428;2022-11-28T02:00:07;3.70;99.90
3944;DHT22;1986;52.546;13.428;2022-11-28T02:02:45;3.70;99.90
3944;DHT22;1986;52.546;13.428;2022-11-28T02:05:15;3.70;99.90
3944;DHT22;1986;52.546;13.428;2022-11-28T02:07:42;3.70;99.90
3944;DHT22;1986;52.546;13.428;2022-11-28T02:10:16;3.70;99.90
3944;DHT22;1986;52.546;13.428;2022-11-28T02:13:02;3.70;99.90
3944;DHT22;1986;52.546;13.428;2022-11-28T02:15:47;3.70;99.90
3944;DHT22;1986;52.546;13.428;2022-11-28T02:18:28;3.80;99.90
3944;DHT22;1986;52.546;13.428;2022-11-28T02:21:11;3.70;99.90
3944;DHT22;1986;52.546;13.428;2022-11-28T02:24:01;3.70;99.90
3944;DHT22;1986;52.546;13.428;2022-11-28T02:26:55;3.80;99.90
3944;DHT22;1986;52.546;13.428;2022-11-28T02:30:06;3.70;99.90
3944;DHT22;1986;52.546;13.428;2022-11-28T02:32:42;3.70;99.90
3944;DHT22;1986;52.546;13.428;2022-11-28T02:35:16;3.70;99.90
3944;DHT22;1986;52.546;13.428;2022-11-28T02:37:54;3.80;99.90
3944;DHT22;1986;52.546;13.428;2022-11-28T02:40:28;3.80;99.90
3944;DHT22;1986;52.546;13.428;2022-11-28T02:43:04;3.80;99.90
3944;DHT22;1986;52.546;13.428;2022-11-28T02:45:37;3.80;99.90
3944;DHT22;1986;52.546;13.428;2022-11-28T02:48:12;3.80;99.90
3944;DHT22;1986;52.546;13.428;2022-11-28T02:50:42;3.80;99.90
3944;DHT22;1986;52.546;13.428;2022-11-28T02:53:13;3.80;99.90
3944;DHT22;1986;52.546;13.428;2022-11-28T02:55:43;3.80;99.90
3944;DHT22;1986;52.546;13.428;2022-11-28T02:58:10;3.80;99.90
3944;DHT22;1986;52.546;13.428;2022-11-28T03:00:39;3.80;99.90
3944;DHT22;1986;52.546;13.428;2022-11-28T03:03:24;3.80;99.90
3944;DHT22;1986;52.546;13.428;2022-11-28T03:05:57;3.80;99.90
3944;DHT22;1986;52.546;13.428;2022-11-28T03:08:36;3.80;99.90
3944;DHT22;1986;52.546;13.428;2022-11-28T03:11:14;3.80;99.90
3944;DHT22;1986;52.546;13.428;2022-11-28T03:13:50;3.80;99.90
3944;DHT22;1986;52.546;13.428;2022-11-28T03:16:23;3.80;99.90
3944;DHT22;1986;52.546;13.428;2022-11-28T03:18:59;3.80;99.90
3944;DHT22;1986;52.546;13.428;2022-11-28T03:21:37;3.80;99.90
3944;DHT22;1986;52.546;13.428;2022-11-28T03:24:09;3.80;99.90
3944;DHT22;1986;52.546;13.428;2022-11-28T03:26:43;3.80;99.90
3944;DHT22;1986;52.546;13.428;2022-11-28T03:29:14;3.80;99.90
3944;DHT22;1986;52.546;13.428;2022-11-28T03:31:46;3.70;99.90
3944;DHT22;1986;52.546;13.428;2022-11-28T03:34:19;3.70;99.90
3944;DHT22;1986;52.546;13.428;2022-11-28T03:36:51;3.70;99.90
3944;DHT22;1986;52.546;13.428;2022-11-28T03:39:22;3.70;99.90
3944;DHT22;1986;52.546;13.428;2022-11-28T03:41:53;3.70;99.90
3944;DHT22;1986;52.546;13.428;2022-11-28T03:44:25;3.70;99.90
3944;DHT22;1986;52.546;13.428;2022-11-28T03:46:55;3.70;99.90
3944;DHT22;1986;52.546;13.428;2022-11-28T03:49:28;3.70;99.90
3944;DHT22;1986;52.546;13.428;2022-11-28T03:52:01;3.70;99.90
3944;DHT22;1986;52.546;13.428;2022-11-28T03:54:33;3.70;99.90
3944;DHT22;1986;52.546;13.428;2022-11-28T03:57:06;3.70;99.90
3944;DHT22;1986;52.546;13.428;2022-11-28T03:59:36;3.70;99.90
3944;DHT22;1986;52.546;13.428;2022-11-28T04:02:09;3.70;99.90
3944;DHT22;1986;52.546;13.428;2022-11-28T04:04:47;3.70;99.90
3944;DHT22;1986;52.546;13.428;2022-11-28T04:07:22;3.70;99.90
3944;DHT22;1986;52.546;13.428;2022-11-28T04:09:56;3.70;99.90
3944;DHT22;1986;52.546;13.428;2022-11-28T04:12:33;3.70;99.90
3944;DHT22;1986;52.546;13.428;2022-11-28T04:15:07;3.70;99.90
3944;DHT22;1986;52.546;13.428;2022-11-28T04:17:37;3.70;99.90
3944;DHT22;1986;52.546;13.428;2022-11-28T04:20:12;3.70;99.90
3944;DHT22;1986;52.546;13.428;2022-11-28T04:22:44;3.70;99.90
3944;DHT22;1986;52.546;13.428;2022-11-28T04:25:14;3.70;99.90
3944;DHT22;1986;52.546;13.428;2022-11-28T04:27:47;3.70;99.90
3944;DHT22;1986;52.546;13.428;2022-11-28T04:30:15;3.70;99.90
3944;DHT22;1986;52.546;13.428;2022-11-28T04:32:46;3.70;99.90
3944;DHT22;1986;52.546;13.428;2022-11-28T04:35:18;3.60;99.90
3944;DHT22;1986;52.546;13.428;2022-11-28T04:37:48;3.60;99.90
3944;DHT22;1986;52.546;13.428;2022-11-28T04:40:17;3.60;99.90
3944;DHT22;1986;52.546;13.428;2022-11-28T04:42:50;3.60;99.90
3944;DHT22;1986;52.546;13.428;2022-11-28T04:45:23;3.60;99.90
3944;DHT22;1986;52.546;13.428;2022-11-28T04:47:51;3.60;99.90
3944;DHT22;1986;52.546;13.428;2022-11-28T04:50:21;3.60;99.90
3944;DHT22;1986;52.546;13.428;2022-11-28T04:52:53;3.60;99.90
3944;DHT22;1986;52.546;13.428;2022-11-28T04:55:27;3.60;99.90
3944;DHT22;1986;52.546;13.428;2022-11-28T04:57:59;3.60;99.90
3944;DHT22;1986;52.546;13.428;2022-11-28T05:00:28;3.60;99.90
3944;DHT22;1986;52.546;13.428;2022-11-28T05:02:55;3.60;99.90
3944;DHT22;1986;52.546;13.428;2022-11-28T05:05:25;3.60;99.90
3944;DHT22;1986;52.546;13.428;2022-11-28T05:07:56;3.60;99.90
3944;DHT22;1986;52.546;13.428;2022-11-28T05:10:24;3.70;99.90
3944;DHT22;1986;52.546;13.428;2022-11-28T05:12:51;3.70;99.90
3944;DHT22;1986;52.546;13.428;2022-11-28T05:15:18;3.70;99.90
3944;DHT22;1986;52.546;13.428;2022-11-28T05:17:45;3.70;99.90
3944;DHT22;1986;52.546;13.428;2022-11-28T05:20:13;3.70;99.90
3944;DHT22;1986;52.546;13.428;2022-11-28T05:22:41;3.70;99.90
3944;DHT22;1986;52.546;13.428;2022-11-28T05:25:08;3.70;99.90
3944;DHT22;1986;52.546;13.428;2022-11-28T05:27:36;3.70;99.90
3944;DHT22;1986;52.546;13.428;2022-11-28T05:30:04;3.70;99.90
3944;DHT22;1986;52.546;13.428;2022-11-28T05:32:31;3.70;99.90
3944;DHT22;1986;52.546;13.428;2022-11-28T05:34:58;3.70;99.90
3944;DHT22;1986;52.546;13.428;2022-11-28T05:37:25;3.70;99.90
3944;DHT22;1986;52.546;13.428;2022-11-28T05:39:54;3.70;99.90
3944;DHT22;1986;52.546;13.428;2022-11-28T05:42:21;3.70;99.90
3944;DHT22;1986;52.546;13.428;2022-11-28T05:44:50;3.70;99.90
3944;DHT22;1986;52.546;13.428;2022-11-28T05:47:17;3.70;99.90
3944;DHT22;1986;52.546;13.428;2022-11-28T05:49:46;3.70;99.90
3944;DHT22;1986;52.546;13.428;2022-11-28T05:52:13;3.80;99.90
3944;DHT22;1986;52.546;13.428;2022-11-28T05:54:40;3.70;99.90
3944;DHT22;1986;52.546;13.428;2022-11-28T05:57:08;3.70;99.90
3944;DHT22;1986;52.546;13.428;2022-11-28T05:59:35;3.70;99.90
3944;DHT22;1986;52.546;13.428;2022-11-28T06:02:02;3.70;99.90
3944;DHT22;1986;52.546;13.428;2022-11-28T06:04:29;3.70;99.90
3944;DHT22;1986;52.546;13.428;2022-11-28T06:06:56;3.70;99.90
3944;DHT22;1986;52.546;13.428;2022-11-28T06:09:23;3.70;99.90
3944;DHT22;1986;52.546;13.428;2022-11-28T06:11:51;3.70;99.90
3944;DHT22;1986;52.546;13.428;2022-11-28T06:14:20;3.70;99.90
3944;DHT22;1986;52.546;13.428;2022-11-28T06:16:47;3.70;99.90
3944;DHT22;1986;52.546;13.428;2022-11-28T06:19:14;3.70;99.90
3944;DHT22;1986;52.546;13.428;2022-11-28T06:21:41;3.70;99.90
3944;DHT22;1986;52.546;13.428;2022-11-28T06:24:08;3.60;99.90
3944;DHT22;1986;52.546;13.428;2022-11-28T06:26:35;3.60;99.90
3944;DHT22;1986;52.546;13.428;2022-11-28T06:29:02;3.60;99.90
3944;DHT22;1986;52.546;13.428;2022-11-28T06:31:31;3.60;99.90
3944;DHT22;1986;52.546;13.428;2022-11-28T06:33:58;3.60;99.90
3944;DHT22;1986;52.546;13.428;2022-11-28T06:36:26;3.60;99.90
3944;DHT22;1986;52.546;13.428;2022-11-28T06:38:55;3.50;99.90
3944;DHT22;1986;52.546;13.428;2022-11-28T06:41:22;3.60;99.90
3944;DHT22;1986;52.546;13.428;2022-11-28T06:43:49;3.50;99.90
3944;DHT22;1986;52.546;13.428;2022-11-28T06:46:18;3.60;99.90
3944;DHT22;1986;52.546;13.428;2022-11-28T06:48:48;3.50;99.90
3944;DHT22;1986;52.546;13.428;2022-11-28T06:51:16;3.50;99.90
3944;DHT22;1986;52.546;13.428;2022-11-28T06:53:43;3.50;99.90
3944;DHT22;1986;52.546;13.428;2022-11-28T06:56:12;3.50;99.90
3944;DHT22;1986;52.546;13.428;2022-11-28T06:58:40;3.50;99.90
3944;DHT22;1986;52.546;13.428;2022-11-28T07:01:08;3.50;99.90
3944;DHT22;1986;52.546;13.428;2022-11-28T07:03:36;3.50;99.90
3944;DHT22;1986;52.546;13.428;2022-11-28T07:06:07;3.50;99.90
3944;DHT22;1986;52.546;13.428;2022-11-28T07:08:34;3.50;99.90
3944;DHT22;1986;52.546;13.428;2022-11-28T07:11:08;3.40;99.90
3944;DHT22;1986;52.546;13.428;2022-11-28T07:13:36;3.40;99.90
3944;DHT22;1986;52.546;13.428;2022-11-28T07:16:03;3.40;99.90
3944;DHT22;1986;52.546;13.428;2022-11-28T07:18:31;3.40;99.90
3944;DHT22;1986;52.546;13.428;2022-11-28T07:20:59;3.40;99.90
3944;DHT22;1986;52.546;13.428;2022-11-28T07:23:27;3.40;99.90
3944;DHT22;1986;52.546;13.428;2022-11-28T07:25:57;3.30;99.90
3944;DHT22;1986;52.546;13.428;2022-11-28T07:28:25;3.30;99.90
3944;DHT22;1986;52.546;13.428;2022-11-28T07:30:58;3.30;99.90
3944;DHT22;1986;52.546;13.428;2022-11-28T07:33:26;3.40;99.90
3944;DHT22;1986;52.546;13.428;2022-11-28T07:35:53;3.30;99.90
3944;DHT22;1986;52.546;13.428;2022-11-28T07:38:21;3.30;99.90
3944;DHT22;1986;52.546;13.428;2022-11-28T07:40:49;3.30;99.90
3944;DHT22;1986;52.546;13.428;2022-11-28T07:43:16;3.40;99.90
3944;DHT22;1986;52.546;13.428;2022-11-28T07:45:43;3.40;99.90
3944;DHT22;1986;52.546;13.428;2022-11-28T07:48:10;3.40;99.90
3944;DHT22;1986;52.546;13.428;2022-11-28T07:50:37;3.40;99.90
3944;DHT22;1986;52.546;13.428;2022-11-28T07:53:04;3.40;99.90
3944;DHT22;1986;52.546;13.428;2022-11-28T07:55:34;3.40;99.90
3944;DHT22;1986;52.546;13.428;2022-11-28T07:58:03;3.40;99.90
3944;DHT22;1986;52.546;13.428;2022-11-28T08:00:31;3.40;99.90
3944;DHT22;1986;52.546;13.428;2022-11-28T08:03:01;3.40;99.90
3944;DHT22;1986;52.546;13.428;2022-11-28T08:05:28;3.40;99.90
3944;DHT22;1986;52.546;13.428;2022-11-28T08:07:56;3.50;99.90
3944;DHT22;1986;52.546;13.428;2022-11-28T08:10:23;3.50;99.90
3944;DHT22;1986;52.546;13.428;2022-11-28T08:12:50;3.50;99.90
3944;DHT22;1986;52.546;13.428;2022-11-28T08:15:19;3.60;99.90
3944;DHT22;1986;52.546;13.428;2022-11-28T08:17:46;3.60;99.90
3944;DHT22;1986;52.546;13.428;2022-11-28T08:20:13;3.60;99.90
3944;DHT22;1986;52.546;13.428;2022-11-28T08:22:42;3.60;99.90
3944;DHT22;1986;52.546;13.428;2022-11-28T08:25:10;3.60;99.90
3944;DHT22;1986;52.546;13.428;2022-11-28T08:27:37;3.70;99.90
3944;DHT22;1986;52.546;13.428;2022-11-28T08:30:05;3.70;99.90
3944;DHT22;1986;52.546;13.428;2022-11-28T08:32:34;3.70;99.90
3944;DHT22;1986;52.546;13.428;2022-11-28T08:35:02;3.70;99.90
3944;DHT22;1986;52.546;13.428;2022-11-28T08:37:29;3.80;99.90
3944;DHT22;1986;52.546;13.428;2022-11-28T08:40:13;3.80;99.90
3944;DHT22;1986;52.546;13.428;2022-11-28T08:42:41;3.80;99.90
3944;DHT22;1986;52.546;13.428;2022-11-28T08:45:10;3.80;99.90
3944;DHT22;1986;52.546;13.428;2022-11-28T08:47:38;3.80;99.90
3944;DHT22;1986;52.546;13.428;2022-11-28T08:50:06;3.70;99.90
3944;DHT22;1986;52.546;13.428;2022-11-28T08:52:33;3.70;99.90
3944;DHT22;1986;52.546;13.428;2022-11-28T08:55:00;3.70;99.90
3944;DHT22;1986;52.546;13.428;2022-11-28T08:57:27;3.80;99.90
3944;DHT22;1986;52.546;13.428;2022-11-28T08:59:54;3.90;99.90
3944;DHT22;1986;52.546;13.428;2022-11-28T09:02:21;3.80;99.90
3944;DHT22;1986;52.546;13.428;2022-11-28T09:04:49;3.80;99.90
3944;DHT22;1986;52.546;13.428;2022-11-28T09:07:17;3.90;99.90
3944;DHT22;1986;52.546;13.428;2022-11-28T09:09:44;3.90;99.90
3944;DHT22;1986;52.546;13.428;2022-11-28T09:12:11;4.00;99.90
3944;DHT22;1986;52.546;13.428;2022-11-28T09:14:38;3.90;99.90
3944;DHT22;1986;52.546;13.428;2022-11-28T09:17:11;4.00;99.90
3944;DHT22;1986;52.546;13.428;2022-11-28T09:19:43;4.10;99.90
3944;DHT22;1986;52.546;13.428;2022-11-28T09:22:11;4.10;99.90
3944;DHT22;1986;52.546;13.428;2022-11-28T09:24:38;4.10;99.90
3944;DHT22;1986;52.546;13.428;2022-11-28T09:27:07;4.10;99.90
3944;DHT22;1986;52.546;13.428;2022-11-28T09:29:40;4.10;99.90
3944;DHT22;1986;52.546;13.428;2022-11-28T09:32:07;4.10;99.90
3944;DHT22;1986;52.546;13.428;2022-11-28T09:34:34;4.10;99.90
3944;DHT22;1986;52.546;13.428;2022-11-28T09:37:01;4.20;99.90
3944;DHT22;1986;52.546;13.428;2022-11-28T09:39:30;4.20;99.90
3944;DHT22;1986;52.546;13.428;2022-11-28T09:42:05;4.20;99.90
3944;DHT22;1986;52.546;13.428;2022-11-28T09:44:39;4.30;99.90
3944;DHT22;1986;52.546;13.428;2022-11-28T09:47:13;4.30;99.90
3944;DHT22;1986;52.546;13.428;2022-11-28T09:49:46;4.20;99.90
3944;DHT22;1986;52.546;13.428;2022-11-28T09:52:24;4.30;99.90
3944;DHT22;1986;52.546;13.428;2022-11-28T09:55:00;4.30;99.90
3944;DHT22;1986;52.546;13.428;2022-11-28T09:57:33;4.40;99.90
3944;DHT22;1986;52.546;13.428;2022-11-28T10:00:02;4.40;99.90
3944;DHT22;1986;52.546;13.428;2022-11-28T10:02:36;4.40;99.90
3944;DHT22;1986;52.546;13.428;2022-11-28T10:05:14;4.50;99.90
3944;DHT22;1986;52.546;13.428;2022-11-28T10:07:57;4.50;99.90
3944;DHT22;1986;52.546;13.428;2022-11-28T10:10:36;4.50;99.90
3944;DHT22;1986;52.546;13.428;2022-11-28T10:13:12;4.50;99.90
3944;DHT22;1986;52.546;13.428;2022-11-28T10:15:55;4.60;99.90
3944;DHT22;1986;52.546;13.428;2022-11-28T10:18:34;4.60;99.90
3944;DHT22;1986;52.546;13.428;2022-11-28T10:21:13;4.60;99.90
3944;DHT22;1986;52.546;13.428;2022-11-28T10:23:44;4.60;99.90
3944;DHT22;1986;52.546;13.428;2022-11-28T10:26:17;4.60;99.90
3944;DHT22;1986;52.546;13.428;2022-11-28T10:28:49;4.60;99.90
3944;DHT22;1986;52.546;13.428;2022-11-28T10:31:23;4.70;99.90
3944;DHT22;1986;52.546;13.428;2022-11-28T10:33:55;4.70;99.90
3944;DHT22;1986;52.546;13.428;2022-11-28T10:36:32;4.70;99.90
3944;DHT22;1986;52.546;13.428;2022-11-28T10:39:10;4.90;99.90
3944;DHT22;1986;52.546;13.428;2022-11-28T10:41:43;4.80;99.90
3944;DHT22;1986;52.546;13.428;2022-11-28T10:44:39;4.80;99.90
3944;DHT22;1986;52.546;13.428;2022-11-28T10:47:13;4.80;99.90
3944;DHT22;1986;52.546;13.428;2022-11-28T10:49:48;4.80;99.90
3944;DHT22;1986;52.546;13.428;2022-11-28T10:52:20;4.90;99.90
3944;DHT22;1986;52.546;13.428;2022-11-28T10:55:16;5.00;99.90
3944;DHT22;1986;52.546;13.428;2022-11-28T10:57:57;5.00;99.90
3944;DHT22;1986;52.546;13.428;2022-11-28T11:00:27;5.10;99.90
3944;DHT22;1986;52.546;13.428;2022-11-28T11:02:55;5.10;99.90
3944;DHT22;1986;52.546;13.428;2022-11-28T11:05:25;5.00;99.90
3944;DHT22;1986;52.546;13.428;2022-11-28T11:07:54;5.00;99.90
3944;DHT22;1986;52.546;13.428;2022-11-28T11:10:28;5.00;99.90
3944;DHT22;1986;52.546;13.428;2022-11-28T11:13:12;5.00;99.90
3944;DHT22;1986;52.546;13.428;2022-11-28T11:15:40;5.00;99.90
3944;DHT22;1986;52.546;13.428;2022-11-28T11:18:21;5.00;99.90
3944;DHT22;1986;52.546;13.428;2022-11-28T11:20:48;5.10;99.90
3944;DHT22;1986;52.546;13.428;2022-11-28T11:23:17;5.10;99.90
3944;DHT22;1986;52.546;13.428;2022-11-28T11:25:50;5.10;99.90
3944;DHT22;1986;52.546;13.428;2022-11-28T11:28:31;5.20;99.90
3944;DHT22;1986;52.546;13.428;2022-11-28T11:30:59;5.20;99.90
3944;DHT22;1986;52.546;13.428;2022-11-28T11:33:31;5.20;99.90
3944;DHT22;1986;52.546;13.428;2022-11-28T11:35:59;5.40;99.90
3944;DHT22;1986;52.546;13.428;2022-11-28T11:38:33;5.40;99.90
3944;DHT22;1986;52.546;13.428;2022-11-28T11:41:23;5.30;99.90
3944;DHT22;1986;52.546;13.428;2022-11-28T11:43:53;5.40;99.90
3944;DHT22;1986;52.546;13.428;2022-11-28T11:46:20;5.50;99.90
3944;DHT22;1986;52.546;13.428;2022-11-28T11:48:48;5.60;99.90
3944;DHT22;1986;52.546;13.428;2022-11-28T11:51:25;5.60;99.90
3944;DHT22;1986;52.546;13.428;2022-11-28T11:54:02;5.50;99.90
3944;DHT22;1986;52.546;13.428;2022-11-28T11:56:31;5.70;99.90
3944;DHT22;1986;52.546;13.428;2022-11-28T11:59:09;5.60;99.90
3944;DHT22;1986;52.546;13.428;2022-11-28T12:01:39;5.70;99.90
3944;DHT22;1986;52.546;13.428;2022-11-28T12:04:14;5.70;99.90
3944;DHT22;1986;52.546;13.428;2022-11-28T12:06:47;5.70;99.90
3944;DHT22;1986;52.546;13.428;2022-11-28T12:09:24;5.70;99.90
3944;DHT22;1986;52.546;13.428;2022-11-28T12:11:56;5.80;99.90
3944;DHT22;1986;52.546;13.428;2022-11-28T12:14:34;5.90;99.90
3944;DHT22;1986;52.546;13.428;2022-11-28T12:17:18;5.90;99.90
3944;DHT22;1986;52.546;13.428;2022-11-28T12:19:59;5.80;99.90
3944;DHT22;1986;52.546;13.428;2022-11-28T12:22:40;5.80;99.90
3944;DHT22;1986;52.546;13.428;2022-11-28T12:25:14;5.90;99.90
3944;DHT22;1986;52.546;13.428;2022-11-28T12:27:55;5.90;99.90
3944;DHT22;1986;52.546;13.428;2022-11-28T12:30:39;6.00;99.90
3944;DHT22;1986;52.546;13.428;2022-11-28T12:33:25;5.90;99.90
3944;DHT22;1986;52.546;13.428;2022-11-28T12:36:07;5.90;99.90
3944;DHT22;1986;52.546;13.428;2022-11-28T12:38:46;5.80;99.90
3944;DHT22;1986;52.546;13.428;2022-11-28T12:41:27;5.80;99.90
3944;DHT22;1986;52.546;13.428;2022-11-28T12:44:02;5.70;99.90
3944;DHT22;1986;52.546;13.428;2022-11-28T12:46:42;5.70;99.90
3944;DHT22;1986;52.546;13.428;2022-11-28T12:49:16;5.70;99.90
3944;DHT22;1986;52.546;13.428;2022-11-28T12:51:54;5.70;99.90
3944;DHT22;1986;52.546;13.428;2022-11-28T12:54:39;5.70;99.90
3944;DHT22;1986;52.546;13.428;2022-11-28T12:57:17;5.80;99.90
3944;DHT22;1986;52.546;13.428;2022-11-28T12:59:52;5.70;99.90
3944;DHT22;1986;52.546;13.428;2022-11-28T13:02:28;5.60;99.90
3944;DHT22;1986;52.546;13.428;2022-11-28T13:05:24;5.50;99.90
3944;DHT22;1986;52.546;13.428;2022-11-28T13:11:04;5.40;99.90
3944;DHT22;1986;52.546;13.428;2022-11-28T13:13:36;5.50;99.90
3944;DHT22;1986;52.546;13.428;2022-11-28T13:16:12;5.50;99.90
3944;DHT22;1986;52.546;13.428;2022-11-28T13:18:44;5.40;99.90
3944;DHT22;1986;52.546;13.428;2022-11-28T13:21:29;5.40;99.90
3944;DHT22;1986;52.546;13.428;2022-11-28T13:24:17;5.40;99.90
3944;DHT22;1986;52.546;13.428;2022-11-28T13:26:50;5.30;99.90
3944;DHT22;1986;52.546;13.428;2022-11-28T13:29:29;5.30;99.90
3944;DHT22;1986;52.546;13.428;2022-11-28T13:32:06;5.30;99.90
3944;DHT22;1986;52.546;13.428;2022-11-28T13:34:38;5.20;99.90
3944;DHT22;1986;52.546;13.428;2022-11-28T13:37:10;5.20;99.90
3944;DHT22;1986;52.546;13.428;2022-11-28T13:39:44;5.20;99.90
3944;DHT22;1986;52.546;13.428;2022-11-28T13:42:23;5.20;99.90
3944;DHT22;1986;52.546;13.428;2022-11-28T13:44:58;5.20;99.90
3944;DHT22;1986;52.546;13.428;2022-11-28T13:47:29;5.20;99.90
3944;DHT22;1986;52.546;13.428;2022-11-28T13:50:37;5.20;99.90
3944;DHT22;1986;52.546;13.428;2022-11-28T13:53:22;5.20;99.90
3944;DHT22;1986;52.546;13.428;2022-11-28T13:55:51;5.10;99.90
3944;DHT22;1986;52.546;13.428;2022-11-28T13:58:27;5.10;99.90
3944;DHT22;1986;52.546;13.428;2022-11-28T14:01:15;5.00;99.90
3944;DHT22;1986;52.546;13.428;2022-11-28T14:03:46;5.00;99.90
3944;DHT22;1986;52.546;13.428;2022-11-28T14:06:18;4.90;99.90
3944;DHT22;1986;52.546;13.428;2022-11-28T14:08:56;4.80;99.90
3944;DHT22;1986;52.546;13.428;2022-11-28T14:11:40;4.80;99.90
3944;DHT22;1986;52.546;13.428;2022-11-28T14:17:25;4.70;99.90
3944;DHT22;1986;52.546;13.428;2022-11-28T14:20:02;4.70;99.90
3944;DHT22;1986;52.546;13.428;2022-11-28T14:22:43;4.70;99.90
3944;DHT22;1986;52.546;13.428;2022-11-28T14:25:17;4.60;99.90
3944;DHT22;1986;52.546;13.428;2022-11-28T14:27:48;4.60;99.90
3944;DHT22;1986;52.546;13.428;2022-11-28T14:30:28;4.60;99.90
3944;DHT22;1986;52.546;13.428;2022-11-28T14:32:59;4.60;99.90
3944;DHT22;1986;52.546;13.428;2022-11-28T14:36:01;4.60;99.90
3944;DHT22;1986;52.546;13.428;2022-11-28T14:38:46;4.60;99.90
3944;DHT22;1986;52.546;13.428;2022-11-28T14:41:13;4.60;99.90
3944;DHT22;1986;52.546;13.428;2022-11-28T14:43:43;4.50;99.90
3944;DHT22;1986;52.546;13.428;2022-11-28T14:46:28;4.50;99.90
3944;DHT22;1986;52.546;13.428;2022-11-28T14:49:28;4.50;99.90
3944;DHT22;1986;52.546;13.428;2022-11-28T14:52:07;4.50;99.90
3944;DHT22;1986;52.546;13.428;2022-11-28T14:54:38;4.40;99.90
3944;DHT22;1986;52.546;13.428;2022-11-28T14:57:13;4.40;99.90
3944;DHT22;1986;52.546;13.428;2022-11-28T14:59:51;4.40;99.90
3944;DHT22;1986;52.546;13.428;2022-11-28T15:02:31;4.40;99.90
3944;DHT22;1986;52.546;13.428;2022-11-28T15:05:17;4.40;99.90
3944;DHT22;1986;52.546;13.428;2022-11-28T15:07:59;4.30;99.90
3944;DHT22;1986;52.546;13.428;2022-11-28T15:10:34;4.40;99.90
3944;DHT22;1986;52.546;13.428;2022-11-28T15:13:25;4.40;99.90
3944;DHT22;1986;52.546;13.428;2022-11-28T15:16:14;4.40;99.90
3944;DHT22;1986;52.546;13.428;2022-11-28T15:18:46;4.30;99.90
3944;DHT22;1986;52.546;13.428;2022-11-28T15:21:16;4.30;99.90
3944;DHT22;1986;52.546;13.428;2022-11-28T15:23:48;4.30;99.90
3944;DHT22;1986;52.546;13.428;2022-11-28T15:26:26;4.20;99.90
3944;DHT22;1986;52.546;13.428;2022-11-28T15:29:07;4.20;99.90
3944;DHT22;1986;52.546;13.428;2022-11-28T15:31:35;4.20;99.90
3944;DHT22;1986;52.546;13.428;2022-11-28T15:34:02;4.20;99.90
3944;DHT22;1986;52.546;13.428;2022-11-28T15:36:33;4.20;99.90
3944;DHT22;1986;52.546;13.428;2022-11-28T15:39:00;4.20;99.90
3944;DHT22;1986;52.546;13.428;2022-11-28T15:41:28;4.10;99.90
3944;DHT22;1986;52.546;13.428;2022-11-28T15:43:56;4.10;99.90
3944;DHT22;1986;52.546;13.428;2022-11-28T15:46:27;4.10;99.90
3944;DHT22;1986;52.546;13.428;2022-11-28T15:48:55;4.10;99.90
3944;DHT22;1986;52.546;13.428;2022-11-28T15:51:31;4.00;99.90
3944;DHT22;1986;52.546;13.428;2022-11-28T15:53:59;4.00;99.90
3944;DHT22;1986;52.546;13.428;2022-11-28T15:56:34;4.00;99.90
3944;DHT22;1986;52.546;13.428;2022-11-28T15:59:02;4.00;99.90
3944;DHT22;1986;52.546;13.428;2022-11-28T16:01:30;4.00;99.90
3944;DHT22;1986;52.546;13.428;2022-11-28T16:03:59;3.90;99.90
3944;DHT22;1986;52.546;13.428;2022-11-28T16:06:28;3.90;99.90
3944;DHT22;1986;52.546;13.428;2022-11-28T16:09:00;4.00;99.90
3944;DHT22;1986;52.546;13.428;2022-11-28T16:11:34;3.90;99.90
3944;DHT22;1986;52.546;13.428;2022-11-28T16:14:07;4.00;99.90
3944;DHT22;1986;52.546;13.428;2022-11-28T16:16:36;4.00;99.90
3944;DHT22;1986;52.546;13.428;2022-11-28T16:19:05;3.90;99.90
3944;DHT22;1986;52.546;13.428;2022-11-28T16:21:36;3.80;99.90
3944;DHT22;1986;52.546;13.428;2022-11-28T16:24:15;3.80;99.90
3944;DHT22;1986;52.546;13.428;2022-11-28T16:26:53;3.90;99.90
3944;DHT22;1986;52.546;13.428;2022-11-28T16:29:22;3.80;99.90
3944;DHT22;1986;52.546;13.428;2022-11-28T16:31:49;3.80;99.90
3944;DHT22;1986;52.546;13.428;2022-11-28T16:34:42;3.80;99.90
3944;DHT22;1986;52.546;13.428;2022-11-28T16:37:13;3.80;99.90
3944;DHT22;1986;52.546;13.428;2022-11-28T16:39:40;3.70;99.90
3944;DHT22;1986;52.546;13.428;2022-11-28T16:42:15;3.70;99.90